»·PEaware :: KLM691 EHAM-EGLL

KLM691 :: EHAM-EGLL

FLIGHT INFORMATION

Flight Status: Arrived
Operator:
KLM
More flights by this operator :: More flights under this callsign
Pilot: Thomas N. (7419)
Aircraft: SAAB 340
(SF34)
More flights by this aircraft type
Origin: EHAM Schiphol
Netherlands
Destination: EGLL Heathrow
United Kingdom
More flights between these airports :: More routes between these airports
Route: GORLO REFSO XAMAN LOGAN
File this flight plan on PilotEdge
Remarks:
Altitude:
(Current/Filed)
19,000ft
Speed:
(Current/Filed)
230kts
Departed: 05-Nov-15 07:26 PM
Arrived: 05-Nov-15 08:41 PM
Distance/Time
Traveled:
200nm/1:15
Distance/Time
To Go:
Arrived

Flight Plot

Page will automatically refresh every two minutes.


Map Options




Map Legend


Flown Route
Filed Route
Departure Airport
Arrival Airport
Navaid (VOR, NDB)
Fix

Horizontal Profiles

Position Reports

Time Latitude Longitude Heading Altitude Ground
Speed
05-Nov-15 19:21 52.311140 4.769508 329 -5ft 7kts
05-Nov-15 19:22 52.315184 4.771965 4 -5ft 12kts
05-Nov-15 19:23 52.315413 4.779645 183 -5ft 15kts
05-Nov-15 19:24 52.287819 4.778789 181 737ft 154kts
05-Nov-15 19:25 52.245303 4.776421 172 2789ft 153kts
05-Nov-15 19:26 52.241253 4.839643 73 4794ft 178kts
05-Nov-15 19:27 52.250661 4.924369 89 5779ft 216kts
05-Nov-15 19:28 52.271123 5.014396 31 5777ft 236kts
05-Nov-15 19:29 52.310787 5.059851 40 5774ft 238kts
05-Nov-15 19:30 52.367374 5.109742 7 5808ft 237kts
05-Nov-15 19:31 52.420433 5.129645 14 7902ft 195kts
05-Nov-15 19:32 52.451228 5.094293 237 9130ft 166kts
05-Nov-15 19:33 52.417023 5.045648 217 10334ft 166kts
05-Nov-15 19:34 52.392442 4.981268 242 11389ft 174kts
05-Nov-15 19:35 52.373763 4.907379 243 12346ft 177kts
05-Nov-15 19:36 52.355289 4.832601 242 13482ft 180kts
05-Nov-15 19:37 52.336117 4.756098 242 14635ft 182kts
05-Nov-15 19:38 52.316760 4.679179 242 15637ft 184kts
05-Nov-15 19:39 52.297068 4.601206 243 16514ft 186kts
05-Nov-15 19:40 52.277098 4.522377 243 17254ft 190kts
05-Nov-15 19:41 52.256581 4.441696 243 17875ft 194kts
05-Nov-15 19:42 52.235725 4.359930 242 18423ft 198kts
05-Nov-15 19:43 52.214131 4.275816 243 18803ft 206kts
05-Nov-15 19:44 52.191298 4.187164 244 18804ft 217kts
05-Nov-15 19:45 52.167803 4.096217 246 18801ft 218kts
05-Nov-15 19:46 52.153954 4.042695 246 18800ft 218kts
05-Nov-15 19:47 52.130218 3.951286 246 18802ft 223kts
05-Nov-15 19:48 52.106026 3.857747 245 18803ft 228kts
05-Nov-15 19:49 52.081135 3.761914 244 18802ft 231kts
05-Nov-15 19:50 52.055748 3.665465 243 18802ft 233kts
05-Nov-15 19:51 52.030098 3.568522 243 18804ft 234kts
05-Nov-15 19:52 52.004372 3.471700 243 18815ft 232kts
05-Nov-15 19:53 51.978906 3.376200 243 18827ft 229kts
05-Nov-15 19:54 51.953644 3.281714 242 18830ft 228kts
05-Nov-15 19:55 51.928113 3.186869 242 18830ft 229kts
05-Nov-15 19:56 51.905527 3.089670 245 18830ft 231kts
05-Nov-15 19:57 51.883410 2.991607 245 18829ft 232kts
05-Nov-15 19:58 51.861209 2.893747 244 18829ft 233kts
05-Nov-15 19:59 51.838958 2.794443 244 18830ft 235kts
05-Nov-15 20:00 51.816102 2.694489 244 18830ft 236kts
05-Nov-15 20:01 51.804912 2.588887 260 18829ft 243kts
05-Nov-15 20:02 51.799320 2.480568 261 18833ft 243kts
05-Nov-15 20:03 51.793260 2.372096 262 18830ft 241kts
05-Nov-15 20:04 51.787822 2.277038 262 18830ft 240kts
05-Nov-15 20:05 51.781550 2.169666 262 18830ft 240kts
05-Nov-15 20:06 51.776253 2.080210 262 18815ft 239kts
05-Nov-15 20:07 51.769824 1.973369 262 18793ft 237kts
05-Nov-15 20:08 51.763507 1.867899 261 18777ft 235kts
05-Nov-15 20:09 51.757294 1.763046 261 18760ft 234kts
05-Nov-15 20:10 51.751213 1.658967 262 18742ft 233kts
05-Nov-15 20:11 51.746492 1.554594 263 18674ft 232kts
05-Nov-15 20:12 51.741756 1.452117 264 18729ft 228kts
05-Nov-15 20:13 51.737034 1.350317 263 18721ft 227kts
05-Nov-15 20:14 51.732157 1.248280 262 18709ft 229kts
05-Nov-15 20:15 51.727120 1.145449 262 18695ft 230kts
05-Nov-15 20:16 51.721965 1.041928 262 18680ft 232kts
05-Nov-15 20:17 51.716716 0.938128 261 18647ft 234kts
05-Nov-15 20:18 51.711271 0.826239 261 17082ft 251kts
05-Nov-15 20:19 51.705771 0.719149 260 15453ft 233kts
05-Nov-15 20:20 51.700271 0.616511 261 13844ft 226kts
05-Nov-15 20:21 51.695010 0.519500 261 12217ft 210kts
05-Nov-15 20:22 51.689914 0.427032 262 10602ft 205kts
05-Nov-15 20:23 51.684873 0.336201 262 8994ft 204kts
05-Nov-15 20:24 51.679715 0.245320 262 7388ft 205kts
05-Nov-15 20:25 51.674477 0.153956 263 5786ft 206kts
05-Nov-15 20:26 51.669157 0.062090 263 4182ft 207kts
05-Nov-15 20:27 51.664093 -0.024306 263 3562ft 171kts
05-Nov-15 20:28 51.659519 -0.101003 262 3572ft 181kts
05-Nov-15 20:29 51.649139 -0.182494 219 3443ft 198kts
05-Nov-15 20:30 51.597033 -0.215556 202 2970ft 204kts
05-Nov-15 20:31 51.551361 -0.189042 118 2478ft 209kts
05-Nov-15 20:32 51.513832 -0.147166 219 2371ft 157kts
05-Nov-15 20:33 51.493265 -0.192075 232 2883ft 111kts
05-Nov-15 20:34 51.475384 -0.228756 208 2977ft 109kts
05-Nov-15 20:35 51.465179 -0.266524 268 3052ft 111kts
05-Nov-15 20:36 51.465283 -0.322563 269 1714ft 184kts
05-Nov-15 20:37 51.464975 -0.384882 269 763ft 134kts
05-Nov-15 20:38 51.464945 -0.437656 267 91ft 113kts
05-Nov-15 20:39 51.466505 -0.450923 267 88ft 14kts
05-Nov-15 20:40 51.468091 -0.454468 24 88ft 13kts
05-Nov-15 20:41 51.468142 -0.453861 99 88ft 0kts
05-Nov-15 20:42 51.468142 -0.453861 99 88ft 0kts

Navigation Log

Ident Type
Flight plan parsing failed, navigation log unavailable